Etusivu
METAR-TAF:

METAR-TAF

Lentoasemat :

Roskilde, Tanska

Leveyspiiri: 55-35N, Pituuspiiri: 012-08E, korkeus merenpinnasta: 44 m

Tämänhetkinen sää

Tämä raportti tehtiin 22 minuuttia sitten, kello 11.20 UTC
Tuuli 8 kn luoteesta, vaihdellen lännen ja pohjoisen/luoteen välillä
Lämpötila 22°C
Kosteus 60%
Ilmanpaine 1015 hPa
Näkyvyys 10 km tai enemmän

METAR: EKRK 231120Z AUTO 31008KT 280V340 9999NDV SCT030/// BKN035/// 22/14 Q1015

Aika: 13:42 (11:42 UTC)

Sääennuste

Tämä raportti tehtiin 18 minuuttia sitten, kello 11.24 UTC
Ennuste voimassa 23. päivästä klo 12 UTC - 23. päivään klo 21 UTC
Tuuli 8 kn lännestä/luoteesta
Näkyvyys 10 km tai enemmän
Hajanaisia pilviä 3500 ft:n korkeudessa

TAF: EKRK 231124Z 2312/2321 30008KT 9999 SCT035

Säähavainnot ja -ennusteet yli 4000 lentoasemalta (METAR- ja TAF-raportit).

Käytössä olevat sääasemat on merkitty karttaan keltaisilla ja punaisilla pisteillä.

Aseta hiiri pisteen päälle nähdäksesi sääaseman nimen.

Klikkaa sitten nähdäksesi säähavainnot ja -ennusteet.

Kartan vaihtaminen: klikkaa mustalla rastilla varustettuja vihreitä pisteitä, niin voit zoomata sisään; viivalla varustettua vihreää pistettä, niin voit zoomata ulos tai vihreitä nuolia, niin pääset viereisille kartoille.


METAR-TAF: